My Meet Scores
Sabina Charlebois, Premier Gymnastics Academy West - MyMeetScores.com
Top100 | Top Teams | Upcoming Meets | Completed Meets | Latest | Add Scores | Help| Support | Bookmark and Share

Sabina Charlebois, Premier Gymnastics Academy West
Personal Bests
LevelVault BarsBeamFloorAA
39.4508.850 8.5758.92535.575
48.3508.500 9.0759.27534.950
59.2509.150 9.6009.42536.625
69.3509.325 9.7009.70037.625
Meet Scores
Date Meet Team Session Level Division Vault Bars Beam Floor AA
2018-03-16 2018 Illinois Level 6, 9, 10 State Championships Premier Gymnastics Academy West 08 6 Ch B 9.150 13T 9.275 7 9.500 2T 9.700 5T 37.625 5
2018-02-16 Big Classic Premier Gymnastics Academy West 1A 6 Junior A 8.825 6 9.200 3T 9.700 2 9.325 6T 37.050 2
2018-01-26 2018 UGA Classic Premier Gymnastics Academy West A4 6 Jr A 9.350 5T 9.225 4 9.300 3T 9.400 3 37.275 3
2018-01-04 Leenda's Island Adventure Premier Gymnastics Academy West G02 6 10 & Under 8.500 6 9.325 1 9.450 2 9.175 3 36.450 2
2017-12-15 2017 Aspire Classic Premier Gymnastics Academy West 1 6 Jr A 8.650 16T 0.000 18 0.000 17T 8.600 16 17.250 17
2017-11-16 Paul Hamm Thanksgiving Classic - Women Premier Gymnastics Academy West 2 6 Younger 8.750 38T 9.300 2 9.350 8T 9.325 11T 36.725 8
2017-03-30 2017 Illinois Level 3 & 5 State Aspire Gymnastics Academy All 5 Jr A 8.850 15T 8.150 26 8.800 18 9.425 4T 35.225 18
2017-02-24 Kinetic Classic Aspire Gymnastics Academy 6 5 All Ages 8.725 29T 7.825 31 8.075 36T 8.925 26 33.550 35
2017-01-27 2017 UGA Invitational Aspire Gymnastics Academy B4 5 Child 8.850 7 9.150 4 9.450 1 9.175 3 36.625 4
2017-01-20 2017 Bravo Classic Aspire Gymnastics Academy 04B 5 7-9yrs 9.250 5 8.000 11 9.600 1 9.075 3 35.925 4
2016-12-16 2016 Aspire Classic Aspire Gymnastics Academy 5 5 Younger 9.200 4T 8.700 12 9.150 10 9.250 1T 36.300 5
2016-12-09 St. Nick Invite Aspire Gymnastics Academy 1 5 JrA 8.750 9 8.050 12T 9.200 3 8.925 7 34.925 6T
2016-11-19 Paul Hamm Thanksgiving Classic - 2016 Girls Aspire Gymnastics Academy 1 5 7-10 yrs 8.700 8 8.150 10 7.850 15 9.175 1 33.875 8
2016-03-10 2016 Illinois Level 4 State Meet Aspire Gymnastics Academy All 4 Child-B 8.350 23 7.750 29 8.800 23 9.025 12 33.925 23
2016-02-13 Western Invite Aspire Gymnastics Academy 5 4 Filly 8.350 13 8.000 18 8.800 14T 9.050 8 34.200 16
2016-01-30 2016 Flip'R Invitational Aspire Gymnastics Academy 5 4 8 & 9 yrs 8.100 19 8.500 11 9.075 7 9.275 1 34.950 8
2016-01-15 2016 Bravo Classic Aspire Gymnastics Academy 14A 4 6-8yrs 8.000 10 7.750 10T 8.500 8 9.150 3 33.400 7
2015-03-12 2015 Illinois Level 3 State Championship GymQuest of Plainfield LLC All 3 Child-B 9.450 5 8.850 12 8.350 23 8.925 15 35.575 14
2015-02-27 Elk Grove Gymnastics Invite GymQuest of Plainfield LLC 1 3 6-8yrs 0.000 31T 8.175 22 8.575 13T 8.900 9T 25.650 30
2015-01-30 Circle Of Stars Gymnastics Invitational GymQuest of Plainfield LLC 1 3 7 & under 8.925 7 8.250 14 8.075 13 8.500 13 33.750 13

www.lazysuits.com